Portada
METAR-TAF:

METAR-TAF

Aeroports :

Tabriz, Iran

latitud: 38-05N, longitud: 046-17E, altitud: 1367 m

Observació

L'informe es va fer fa 28 minuts, a les 22:00 UTC
Vent 6 kt del Nord-Est
Temperatura 3°C
Humitat 44%
Pressió 1025 hPa
Visibilitat 10 km o més
sense núvols per sota de 1500 mi sense presència de cumulonimbus.

METAR: OITT 132200Z 04006KT CAVOK 03/M08 Q1025 A3028

Hora: 01:58 (22:28 UTC)

Pronòstic

L'informe es va fer fa 4 hores i 58 minuts, a les 17:30 UTC
Pronòstic vàlid del 13 a les 18 UTC al 14 a les 24 UTC
Vent 6 kt del Est
Visibilitat: 7000 m
Temporalment
l' 14 a les 09 UTC al 14 a les 15 UTC
Vent 12 kt del Oest
Escasses núvols a una alçada de 3500 ft, Cumulus congestus.
Núvols disperses a una alçada de 10000 ft

TAF: OITT 131730Z 1318/1424 09006KT 7000 NSC TEMPO 1409/1415 27012KT FEW035TCU SCT100

Observacions i pronòstics meteorològics de més de 4000 aeroports (METAR i TAF).

Les estacions disponibles són els punts grocs i vermells al mapa.

Posi el ratolí al punt desitjat per veure el nom de l'estació.

Feu clic per veure les observacions i els pronòstics meteorològics.

Per canviar el mapa: feu clic els botons verds amb una creu de color negre per apropar; al botó verd amb un guió per allunyar la imatge; o en les fletxes verdes per a mapes adjacents.


METAR-TAF: